Flugplatz Blaubeuren

Für EDMC sind keine METAR/TAF Berichte vorhanden.
Es werden die Flugwettermeldungen vom Flugplatz Laupheim Airport in 23 km Entfernung angezeigt.

Bericht für ETHL

vom 21.07. um 20:20 UTC

variable Windrichtung mit 1 kt

Sichtweite 10 km oder mehr

gering bewölkt in 5000 ft

aufgebrochene Bewölkung in 20000 ft

Temperatur 21.0°C

Taupunkt 16.0°C

Luftfeuchtigkeit 73%

Luftdruck 1024 hPa

ETHL 212020Z VRB01KT 9999 FEW050 BKN200 21/16 Q1024 BLU+
Keine Prognose (TAF) verfügbar.
Impressum